메인 페이지
METAR-TAF:

METAR-TAF

공항 :

Otis Air National Guard Base

Falmouth, 매사추세츠, 미국

위도: 41-39N, 경도: 070-31W, 고도: 40m

현재 날씨관측

예보는 1 시간 7분 전, 17:56시(UTC)에 발표되었습니다.
북북동15kt, 순간 최대 풍속 25kt
온도 5°C
습도 81%
기압 1016 hPa
시정: 11.3km
고도 1300ft 상공 흐림

METAR: KFMH 041756Z 02015G25KT 7SM OVC013 05/02 A3000

시각: 15:03 (19:03 UTC)

예보

예보는 1 시간 30분 전, 17:33시(UTC)에 발표되었습니다.
예보 대상 시간: 04일 18시부터 05일 18시까지 (UTC)
북북동14kt, 순간 최대 풍속 23kt
시정: 10km
고도 1500ft 상공 흐림
04일 2200시부터 (UTC)
북북동10kt, 순간 최대 풍속 17kt
시정: 10km
고도 2000ft 상공 흐림
05일 0200시부터 (UTC)
북북동6kt
시정: 10km
고도 1500ft 상공 흐림
05일 1400시부터 (UTC)
남남동8kt
시정: 10km
고도 2500ft 상공 흐림

TAF: KFMH 041733Z 0418/0518 02014G23KT P6SM OVC015 FM042200 03010G17KT P6SM OVC020 FM050200 03006KT P6SM OVC015 FM051400 15008KT P6SM OVC025

4,000개 이상의 공항 관측 자료 및 예보 (METAR 및 TAF 보고).

지도상에서 검색 가능한 기상관측소가 노란 점과 빨간 점으로 표시되어 있습니다.

기상관측소 명을 보려면 표시 위로 마우스를 이동하세요.

날씨 관측과 예보를 보려면 클릭하세요.

지도 변경 : 확대하려면 엑스 표시가 있는 녹색 버튼, 축소하려면 빼기 표시가 있는 녹색 버튼, 다음 페이지의 지도를 보려면 녹색 화살표를 클릭하세요.


METAR-TAF: